sensor_id;sensor_type;location;lat;lon;timestamp;P1;durP1;ratioP1;P2;durP2;ratioP2
51925;SDS011;37952;51.938;15.480;2023-03-23T00:03:57;1.60;;;1.50;;
51925;SDS011;37952;51.938;15.480;2023-03-23T00:06:59;1.50;;;1.30;;
51925;SDS011;37952;51.938;15.480;2023-03-23T00:10:04;1.30;;;1.30;;
51925;SDS011;37952;51.938;15.480;2023-03-23T00:13:06;1.70;;;1.30;;
51925;SDS011;37952;51.938;15.480;2023-03-23T00:16:08;1.50;;;1.40;;
51925;SDS011;37952;51.938;15.480;2023-03-23T00:19:18;2.10;;;1.60;;
51925;SDS011;37952;51.938;15.480;2023-03-23T00:22:22;1.60;;;1.50;;
51925;SDS011;37952;51.938;15.480;2023-03-23T00:25:26;1.90;;;1.70;;
51925;SDS011;37952;51.938;15.480;2023-03-23T00:28:27;2.10;;;1.60;;
51925;SDS011;37952;51.938;15.480;2023-03-23T00:31:29;1.80;;;1.70;;
51925;SDS011;37952;51.938;15.480;2023-03-23T00:34:34;1.90;;;1.80;;
51925;SDS011;37952;51.938;15.480;2023-03-23T00:37:39;2.00;;;1.90;;
51925;SDS011;37952;51.938;15.480;2023-03-23T00:40:41;2.20;;;2.00;;
51925;SDS011;37952;51.938;15.480;2023-03-23T00:43:45;1.90;;;1.80;;
51925;SDS011;37952;51.938;15.480;2023-03-23T00:46:49;2.20;;;1.90;;
51925;SDS011;37952;51.938;15.480;2023-03-23T00:49:51;2.60;;;2.40;;
51925;SDS011;37952;51.938;15.480;2023-03-23T00:52:54;2.90;;;2.70;;
51925;SDS011;37952;51.938;15.480;2023-03-23T00:55:57;2.90;;;2.70;;
51925;SDS011;37952;51.938;15.480;2023-03-23T00:58:59;3.80;;;3.10;;
51925;SDS011;37952;51.938;15.480;2023-03-23T01:02:02;4.30;;;2.50;;
51925;SDS011;37952;51.938;15.480;2023-03-23T01:05:03;3.00;;;2.80;;
51925;SDS011;37952;51.938;15.480;2023-03-23T01:08:06;3.00;;;2.80;;
51925;SDS011;37952;51.938;15.480;2023-03-23T01:11:08;3.40;;;3.10;;
51925;SDS011;37952;51.938;15.480;2023-03-23T01:14:10;3.20;;;3.00;;
51925;SDS011;37952;51.938;15.480;2023-03-23T01:17:13;3.10;;;2.90;;
51925;SDS011;37952;51.938;15.480;2023-03-23T01:20:17;2.80;;;2.60;;
51925;SDS011;37952;51.938;15.480;2023-03-23T01:23:18;3.40;;;3.10;;
51925;SDS011;37952;51.938;15.480;2023-03-23T01:26:21;3.20;;;2.90;;
51925;SDS011;37952;51.938;15.480;2023-03-23T01:29:25;3.10;;;2.90;;
51925;SDS011;37952;51.938;15.480;2023-03-23T01:32:28;2.60;;;2.40;;
51925;SDS011;37952;51.938;15.480;2023-03-23T01:35:30;2.40;;;2.30;;
51925;SDS011;37952;51.938;15.480;2023-03-23T01:38:32;3.10;;;2.60;;
51925;SDS011;37952;51.938;15.480;2023-03-23T01:41:35;3.90;;;2.50;;
51925;SDS011;37952;51.938;15.480;2023-03-23T01:47:38;1.80;;;1.70;;
51925;SDS011;37952;51.938;15.480;2023-03-23T01:50:42;3.20;;;2.40;;
51925;SDS011;37952;51.938;15.480;2023-03-23T01:53:57;2.10;;;1.90;;
51925;SDS011;37952;51.938;15.480;2023-03-23T01:57:04;1.60;;;1.50;;
51925;SDS011;37952;51.938;15.480;2023-03-23T02:00:11;1.90;;;1.70;;
51925;SDS011;37952;51.938;15.480;2023-03-23T02:03:16;1.90;;;1.80;;
51925;SDS011;37952;51.938;15.480;2023-03-23T02:06:18;2.90;;;1.60;;
51925;SDS011;37952;51.938;15.480;2023-03-23T02:09:20;2.00;;;1.90;;
51925;SDS011;37952;51.938;15.480;2023-03-23T02:12:22;2.60;;;1.50;;
51925;SDS011;37952;51.938;15.480;2023-03-23T02:15:25;1.50;;;1.40;;
51925;SDS011;37952;51.938;15.480;2023-03-23T02:18:36;1.80;;;1.70;;
51925;SDS011;37952;51.938;15.480;2023-03-23T02:25:33;1.30;;;1.20;;
51925;SDS011;37952;51.938;15.480;2023-03-23T02:32:31;1.40;;;1.30;;
51925;SDS011;37952;51.938;15.480;2023-03-23T02:35:56;1.60;;;1.50;;
51925;SDS011;37952;51.938;15.480;2023-03-23T02:42:21;1.60;;;1.50;;
51925;SDS011;37952;51.938;15.480;2023-03-23T02:45:27;1.70;;;1.60;;
51925;SDS011;37952;51.938;15.480;2023-03-23T02:48:32;1.40;;;1.30;;
51925;SDS011;37952;51.938;15.480;2023-03-23T02:51:34;1.40;;;1.30;;
51925;SDS011;37952;51.938;15.480;2023-03-23T02:54:38;1.50;;;1.40;;
51925;SDS011;37952;51.938;15.480;2023-03-23T02:57:40;2.00;;;1.60;;
51925;SDS011;37952;51.938;15.480;2023-03-23T03:00:42;1.80;;;1.70;;
51925;SDS011;37952;51.938;15.480;2023-03-23T03:03:45;1.40;;;1.30;;
51925;SDS011;37952;51.938;15.480;2023-03-23T03:06:53;1.40;;;1.30;;
51925;SDS011;37952;51.938;15.480;2023-03-23T03:16:33;2.10;;;1.60;;
51925;SDS011;37952;51.938;15.480;2023-03-23T03:19:44;1.90;;;1.80;;
51925;SDS011;37952;51.938;15.480;2023-03-23T03:22:49;2.00;;;1.90;;
51925;SDS011;37952;51.938;15.480;2023-03-23T03:25:54;1.70;;;1.60;;
51925;SDS011;37952;51.938;15.480;2023-03-23T03:28:58;2.30;;;1.30;;
51925;SDS011;37952;51.938;15.480;2023-03-23T03:32:01;1.60;;;1.50;;
51925;SDS011;37952;51.938;15.480;2023-03-23T03:35:09;1.60;;;1.50;;
51925;SDS011;37952;51.938;15.480;2023-03-23T03:38:11;1.90;;;1.40;;
51925;SDS011;37952;51.938;15.480;2023-03-23T03:41:14;2.00;;;1.20;;
51925;SDS011;37952;51.938;15.480;2023-03-23T03:44:16;1.30;;;1.20;;
51925;SDS011;37952;51.938;15.480;2023-03-23T03:47:17;1.60;;;1.50;;
51925;SDS011;37952;51.938;15.480;2023-03-23T03:50:19;1.80;;;1.20;;
51925;SDS011;37952;51.938;15.480;2023-03-23T03:53:21;1.40;;;1.30;;
51925;SDS011;37952;51.938;15.480;2023-03-23T03:56:23;1.70;;;1.60;;
51925;SDS011;37952;51.938;15.480;2023-03-23T03:59:25;1.20;;;1.10;;
51925;SDS011;37952;51.938;15.480;2023-03-23T04:02:28;1.60;;;1.30;;
51925;SDS011;37952;51.938;15.480;2023-03-23T04:05:29;1.40;;;1.30;;
51925;SDS011;37952;51.938;15.480;2023-03-23T04:08:31;1.80;;;1.60;;
51925;SDS011;37952;51.938;15.480;2023-03-23T04:11:33;1.30;;;1.20;;
51925;SDS011;37952;51.938;15.480;2023-03-23T04:14:35;1.40;;;1.30;;
51925;SDS011;37952;51.938;15.480;2023-03-23T04:17:37;2.80;;;1.70;;
51925;SDS011;37952;51.938;15.480;2023-03-23T04:20:39;2.00;;;1.90;;
51925;SDS011;37952;51.938;15.480;2023-03-23T04:23:41;2.50;;;2.20;;
51925;SDS011;37952;51.938;15.480;2023-03-23T04:26:43;1.60;;;1.50;;
51925;SDS011;37952;51.938;15.480;2023-03-23T04:29:46;1.50;;;1.40;;
51925;SDS011;37952;51.938;15.480;2023-03-23T04:32:50;2.00;;;1.30;;
51925;SDS011;37952;51.938;15.480;2023-03-23T04:35:56;1.20;;;1.10;;
51925;SDS011;37952;51.938;15.480;2023-03-23T04:42:08;1.30;;;1.20;;
51925;SDS011;37952;51.938;15.480;2023-03-23T04:45:11;1.20;;;1.10;;
51925;SDS011;37952;51.938;15.480;2023-03-23T04:48:15;0.90;;;0.90;;
51925;SDS011;37952;51.938;15.480;2023-03-23T04:51:17;1.20;;;1.10;;
51925;SDS011;37952;51.938;15.480;2023-03-23T04:54:19;1.30;;;1.20;;
51925;SDS011;37952;51.938;15.480;2023-03-23T04:57:27;3.00;;;0.80;;
51925;SDS011;37952;51.938;15.480;2023-03-23T05:03:31;2.80;;;1.10;;
51925;SDS011;37952;51.938;15.480;2023-03-23T05:06:34;1.90;;;1.50;;
51925;SDS011;37952;51.938;15.480;2023-03-23T05:09:36;1.40;;;0.80;;
51925;SDS011;37952;51.938;15.480;2023-03-23T05:12:37;1.20;;;1.10;;
51925;SDS011;37952;51.938;15.480;2023-03-23T05:15:39;1.10;;;1.10;;
51925;SDS011;37952;51.938;15.480;2023-03-23T05:18:41;0.90;;;0.90;;
51925;SDS011;37952;51.938;15.480;2023-03-23T05:21:42;1.20;;;1.10;;
51925;SDS011;37952;51.938;15.480;2023-03-23T05:24:46;1.40;;;1.30;;
51925;SDS011;37952;51.938;15.480;2023-03-23T05:27:48;2.00;;;1.80;;
51925;SDS011;37952;51.938;15.480;2023-03-23T05:30:54;1.70;;;1.60;;
51925;SDS011;37952;51.938;15.480;2023-03-23T05:33:57;1.60;;;1.50;;
51925;SDS011;37952;51.938;15.480;2023-03-23T05:40:47;1.80;;;1.70;;
51925;SDS011;37952;51.938;15.480;2023-03-23T05:43:50;1.40;;;1.30;;
51925;SDS011;37952;51.938;15.480;2023-03-23T05:46:51;1.30;;;1.20;;
51925;SDS011;37952;51.938;15.480;2023-03-23T05:49:53;1.50;;;1.40;;
51925;SDS011;37952;51.938;15.480;2023-03-23T05:52:55;1.50;;;1.40;;
51925;SDS011;37952;51.938;15.480;2023-03-23T05:56:00;1.70;;;1.60;;
51925;SDS011;37952;51.938;15.480;2023-03-23T05:59:03;2.50;;;1.10;;
51925;SDS011;37952;51.938;15.480;2023-03-23T06:02:05;0.80;;;0.80;;
51925;SDS011;37952;51.938;15.480;2023-03-23T06:05:06;2.30;;;1.30;;
51925;SDS011;37952;51.938;15.480;2023-03-23T06:08:08;1.10;;;1.10;;
51925;SDS011;37952;51.938;15.480;2023-03-23T06:11:10;1.40;;;1.30;;
51925;SDS011;37952;51.938;15.480;2023-03-23T06:14:11;1.20;;;1.20;;
51925;SDS011;37952;51.938;15.480;2023-03-23T06:17:17;1.30;;;1.00;;
51925;SDS011;37952;51.938;15.480;2023-03-23T06:20:18;1.00;;;1.00;;
51925;SDS011;37952;51.938;15.480;2023-03-23T06:23:20;1.30;;;1.20;;
51925;SDS011;37952;51.938;15.480;2023-03-23T06:26:23;1.20;;;1.10;;
51925;SDS011;37952;51.938;15.480;2023-03-23T06:29:32;0.80;;;0.80;;
51925;SDS011;37952;51.938;15.480;2023-03-23T06:32:34;1.20;;;1.00;;
51925;SDS011;37952;51.938;15.480;2023-03-23T06:35:35;1.00;;;1.00;;
51925;SDS011;37952;51.938;15.480;2023-03-23T06:38:37;1.10;;;1.00;;
51925;SDS011;37952;51.938;15.480;2023-03-23T06:41:38;1.10;;;1.10;;
51925;SDS011;37952;51.938;15.480;2023-03-23T06:44:41;1.30;;;1.20;;
51925;SDS011;37952;51.938;15.480;2023-03-23T06:47:43;1.60;;;1.50;;
51925;SDS011;37952;51.938;15.480;2023-03-23T06:50:46;1.70;;;1.60;;
51925;SDS011;37952;51.938;15.480;2023-03-23T06:53:48;2.40;;;2.20;;
51925;SDS011;37952;51.938;15.480;2023-03-23T06:56:49;1.70;;;1.60;;
51925;SDS011;37952;51.938;15.480;2023-03-23T06:59:51;1.60;;;1.50;;
51925;SDS011;37952;51.938;15.480;2023-03-23T07:02:52;1.80;;;1.70;;
51925;SDS011;37952;51.938;15.480;2023-03-23T07:05:54;1.70;;;1.60;;
51925;SDS011;37952;51.938;15.480;2023-03-23T07:08:56;2.60;;;2.40;;
51925;SDS011;37952;51.938;15.480;2023-03-23T07:11:57;1.40;;;1.30;;
51925;SDS011;37952;51.938;15.480;2023-03-23T07:14:59;1.50;;;1.40;;
51925;SDS011;37952;51.938;15.480;2023-03-23T07:18:01;1.10;;;1.10;;
51925;SDS011;37952;51.938;15.480;2023-03-23T07:21:03;1.40;;;1.30;;
51925;SDS011;37952;51.938;15.480;2023-03-23T07:24:05;1.30;;;1.20;;
51925;SDS011;37952;51.938;15.480;2023-03-23T07:27:07;1.40;;;1.10;;
51925;SDS011;37952;51.938;15.480;2023-03-23T07:30:09;1.60;;;1.00;;
51925;SDS011;37952;51.938;15.480;2023-03-23T07:33:11;1.30;;;1.20;;
51925;SDS011;37952;51.938;15.480;2023-03-23T07:36:13;1.10;;;1.00;;
51925;SDS011;37952;51.938;15.480;2023-03-23T07:39:17;0.80;;;0.80;;
51925;SDS011;37952;51.938;15.480;2023-03-23T07:42:19;1.40;;;1.00;;
51925;SDS011;37952;51.938;15.480;2023-03-23T07:45:21;1.00;;;0.90;;
51925;SDS011;37952;51.938;15.480;2023-03-23T07:48:23;0.80;;;0.80;;
51925;SDS011;37952;51.938;15.480;2023-03-23T07:51:25;2.60;;;1.00;;
51925;SDS011;37952;51.938;15.480;2023-03-23T07:54:27;1.20;;;0.90;;
51925;SDS011;37952;51.938;15.480;2023-03-23T07:57:29;0.80;;;0.80;;
51925;SDS011;37952;51.938;15.480;2023-03-23T08:00:32;0.90;;;0.80;;
51925;SDS011;37952;51.938;15.480;2023-03-23T08:03:34;1.00;;;0.90;;
51925;SDS011;37952;51.938;15.480;2023-03-23T08:06:36;2.70;;;1.00;;
51925;SDS011;37952;51.938;15.480;2023-03-23T08:09:38;2.70;;;0.90;;
51925;SDS011;37952;51.938;15.480;2023-03-23T08:12:41;0.70;;;0.70;;
51925;SDS011;37952;51.938;15.480;2023-03-23T08:15:44;0.80;;;0.80;;
51925;SDS011;37952;51.938;15.480;2023-03-23T08:18:46;1.90;;;1.00;;
51925;SDS011;37952;51.938;15.480;2023-03-23T08:21:48;0.80;;;0.60;;
51925;SDS011;37952;51.938;15.480;2023-03-23T08:24:51;1.00;;;1.00;;
51925;SDS011;37952;51.938;15.480;2023-03-23T08:27:54;2.30;;;1.20;;
51925;SDS011;37952;51.938;15.480;2023-03-23T08:30:59;0.90;;;0.80;;
51925;SDS011;37952;51.938;15.480;2023-03-23T08:34:02;0.70;;;0.70;;
51925;SDS011;37952;51.938;15.480;2023-03-23T08:37:06;0.80;;;0.80;;
51925;SDS011;37952;51.938;15.480;2023-03-23T08:40:09;0.60;;;0.60;;
51925;SDS011;37952;51.938;15.480;2023-03-23T08:43:19;3.80;;;0.80;;
51925;SDS011;37952;51.938;15.480;2023-03-23T08:46:22;1.70;;;1.30;;
51925;SDS011;37952;51.938;15.480;2023-03-23T08:49:31;2.00;;;1.00;;
51925;SDS011;37952;51.938;15.480;2023-03-23T08:52:36;3.20;;;0.80;;
51925;SDS011;37952;51.938;15.480;2023-03-23T08:55:39;3.10;;;1.10;;
51925;SDS011;37952;51.938;15.480;2023-03-23T08:58:41;0.90;;;0.90;;
51925;SDS011;37952;51.938;15.480;2023-03-23T09:01:44;5.30;;;0.70;;
51925;SDS011;37952;51.938;15.480;2023-03-23T09:04:47;1.80;;;1.10;;
51925;SDS011;37952;51.938;15.480;2023-03-23T09:07:51;1.10;;;0.80;;
51925;SDS011;37952;51.938;15.480;2023-03-23T09:10:58;0.80;;;0.80;;
51925;SDS011;37952;51.938;15.480;2023-03-23T09:14:02;2.80;;;1.00;;
51925;SDS011;37952;51.938;15.480;2023-03-23T09:17:05;1.80;;;1.10;;
51925;SDS011;37952;51.938;15.480;2023-03-23T09:20:07;1.70;;;1.10;;
51925;SDS011;37952;51.938;15.480;2023-03-23T09:23:13;1.00;;;0.90;;
51925;SDS011;37952;51.938;15.480;2023-03-23T09:26:17;1.40;;;0.80;;
51925;SDS011;37952;51.938;15.480;2023-03-23T09:32:56;6.50;;;0.90;;
51925;SDS011;37952;51.938;15.480;2023-03-23T09:35:58;0.80;;;0.80;;
51925;SDS011;37952;51.938;15.480;2023-03-23T09:39:01;1.80;;;0.80;;
51925;SDS011;37952;51.938;15.480;2023-03-23T09:49:02;0.80;;;0.70;;
51925;SDS011;37952;51.938;15.480;2023-03-23T09:52:13;2.20;;;1.10;;
51925;SDS011;37952;51.938;15.480;2023-03-23T09:55:17;1.70;;;1.00;;
51925;SDS011;37952;51.938;15.480;2023-03-23T09:58:33;0.60;;;0.60;;
51925;SDS011;37952;51.938;15.480;2023-03-23T10:01:43;1.20;;;0.80;;
51925;SDS011;37952;51.938;15.480;2023-03-23T10:04:49;0.80;;;0.70;;
51925;SDS011;37952;51.938;15.480;2023-03-23T10:07:54;1.30;;;0.70;;
51925;SDS011;37952;51.938;15.480;2023-03-23T10:14:25;1.10;;;1.00;;
51925;SDS011;37952;51.938;15.480;2023-03-23T10:17:52;1.20;;;1.10;;
51925;SDS011;37952;51.938;15.480;2023-03-23T10:21:01;1.20;;;1.10;;
51925;SDS011;37952;51.938;15.480;2023-03-23T10:24:08;0.50;;;0.50;;
51925;SDS011;37952;51.938;15.480;2023-03-23T10:27:19;0.90;;;0.90;;
51925;SDS011;37952;51.938;15.480;2023-03-23T10:30:36;1.30;;;1.10;;
51925;SDS011;37952;51.938;15.480;2023-03-23T10:33:44;1.40;;;1.30;;
51925;SDS011;37952;51.938;15.480;2023-03-23T10:44:01;1.40;;;1.30;;
51925;SDS011;37952;51.938;15.480;2023-03-23T10:47:09;0.80;;;0.80;;
51925;SDS011;37952;51.938;15.480;2023-03-23T10:50:13;1.30;;;1.20;;
51925;SDS011;37952;51.938;15.480;2023-03-23T10:53:19;1.40;;;1.30;;
51925;SDS011;37952;51.938;15.480;2023-03-23T10:56:27;2.80;;;1.10;;
51925;SDS011;37952;51.938;15.480;2023-03-23T11:00:16;1.10;;;1.00;;
51925;SDS011;37952;51.938;15.480;2023-03-23T11:03:25;1.10;;;1.00;;
51925;SDS011;37952;51.938;15.480;2023-03-23T11:06:42;1.70;;;1.60;;
51925;SDS011;37952;51.938;15.480;2023-03-23T11:09:54;1.90;;;1.70;;
51925;SDS011;37952;51.938;15.480;2023-03-23T11:12:58;2.20;;;1.40;;
51925;SDS011;37952;51.938;15.480;2023-03-23T11:19:14;2.90;;;1.20;;
51925;SDS011;37952;51.938;15.480;2023-03-23T11:22:26;2.00;;;1.20;;
51925;SDS011;37952;51.938;15.480;2023-03-23T11:25:29;1.30;;;1.10;;
51925;SDS011;37952;51.938;15.480;2023-03-23T11:28:34;1.20;;;1.10;;
51925;SDS011;37952;51.938;15.480;2023-03-23T11:34:53;1.20;;;1.10;;
51925;SDS011;37952;51.938;15.480;2023-03-23T11:37:58;2.20;;;2.00;;
51925;SDS011;37952;51.938;15.480;2023-03-23T11:41:01;1.90;;;1.20;;
51925;SDS011;37952;51.938;15.480;2023-03-23T11:44:04;1.00;;;0.90;;
51925;SDS011;37952;51.938;15.480;2023-03-23T11:50:34;1.10;;;0.90;;
51925;SDS011;37952;51.938;15.480;2023-03-23T11:57:06;0.90;;;0.90;;
51925;SDS011;37952;51.938;15.480;2023-03-23T12:00:17;5.60;;;1.00;;
51925;SDS011;37952;51.938;15.480;2023-03-23T12:03:21;1.30;;;1.20;;
51925;SDS011;37952;51.938;15.480;2023-03-23T12:13:31;0.80;;;0.80;;
51925;SDS011;37952;51.938;15.480;2023-03-23T12:20:06;0.90;;;0.90;;
51925;SDS011;37952;51.938;15.480;2023-03-23T12:23:23;1.60;;;1.10;;
51925;SDS011;37952;51.938;15.480;2023-03-23T12:26:40;1.40;;;1.30;;
51925;SDS011;37952;51.938;15.480;2023-03-23T12:36:44;2.20;;;1.40;;
51925;SDS011;37952;51.938;15.480;2023-03-23T12:43:55;1.00;;;0.90;;
51925;SDS011;37952;51.938;15.480;2023-03-23T12:47:10;1.20;;;1.10;;
51925;SDS011;37952;51.938;15.480;2023-03-23T12:50:43;1.10;;;0.90;;
51925;SDS011;37952;51.938;15.480;2023-03-23T12:57:55;2.40;;;0.90;;
51925;SDS011;37952;51.938;15.480;2023-03-23T13:04:30;0.70;;;0.70;;
51925;SDS011;37952;51.938;15.480;2023-03-23T13:07:45;0.90;;;0.90;;
51925;SDS011;37952;51.938;15.480;2023-03-23T13:10:51;2.20;;;1.00;;
51925;SDS011;37952;51.938;15.480;2023-03-23T13:14:10;1.10;;;1.10;;
51925;SDS011;37952;51.938;15.480;2023-03-23T13:17:54;0.90;;;0.70;;
51925;SDS011;37952;51.938;15.480;2023-03-23T13:21:02;2.20;;;0.80;;
51925;SDS011;37952;51.938;15.480;2023-03-23T13:24:08;1.10;;;0.80;;
51925;SDS011;37952;51.938;15.480;2023-03-23T13:27:14;0.80;;;0.80;;
51925;SDS011;37952;51.938;15.480;2023-03-23T13:30:18;1.40;;;0.90;;
51925;SDS011;37952;51.938;15.480;2023-03-23T13:33:28;1.40;;;1.10;;
51925;SDS011;37952;51.938;15.480;2023-03-23T13:36:37;0.80;;;0.80;;
51925;SDS011;37952;51.938;15.480;2023-03-23T13:40:15;1.50;;;0.90;;
51925;SDS011;37952;51.938;15.480;2023-03-23T13:43:29;0.70;;;0.70;;
51925;SDS011;37952;51.938;15.480;2023-03-23T13:46:34;2.20;;;0.90;;
51925;SDS011;37952;51.938;15.480;2023-03-23T13:53:45;3.90;;;1.30;;
51925;SDS011;37952;51.938;15.480;2023-03-23T13:59:59;4.90;;;1.20;;
51925;SDS011;37952;51.938;15.480;2023-03-23T14:03:33;0.80;;;0.80;;
51925;SDS011;37952;51.938;15.480;2023-03-23T14:06:41;1.00;;;0.90;;
51925;SDS011;37952;51.938;15.480;2023-03-23T14:09:45;4.20;;;1.10;;
51925;SDS011;37952;51.938;15.480;2023-03-23T14:12:52;1.30;;;1.20;;
51925;SDS011;37952;51.938;15.480;2023-03-23T14:15:59;6.60;;;1.20;;
51925;SDS011;37952;51.938;15.480;2023-03-23T14:22:24;1.50;;;0.90;;
51925;SDS011;37952;51.938;15.480;2023-03-23T14:25:29;1.70;;;1.00;;
51925;SDS011;37952;51.938;15.480;2023-03-23T14:28:41;1.60;;;1.00;;
51925;SDS011;37952;51.938;15.480;2023-03-23T14:31:53;1.30;;;1.00;;
51925;SDS011;37952;51.938;15.480;2023-03-23T14:35:12;0.90;;;0.90;;
51925;SDS011;37952;51.938;15.480;2023-03-23T14:38:35;1.30;;;1.10;;
51925;SDS011;37952;51.938;15.480;2023-03-23T14:41:37;1.00;;;1.00;;
51925;SDS011;37952;51.938;15.480;2023-03-23T14:44:41;1.10;;;1.00;;
51925;SDS011;37952;51.938;15.480;2023-03-23T14:47:57;1.90;;;1.10;;
51925;SDS011;37952;51.938;15.480;2023-03-23T14:51:01;1.40;;;1.00;;
51925;SDS011;37952;51.938;15.480;2023-03-23T14:54:07;1.10;;;1.00;;
51925;SDS011;37952;51.938;15.480;2023-03-23T15:00:22;1.20;;;1.10;;
51925;SDS011;37952;51.938;15.480;2023-03-23T15:03:27;0.90;;;0.90;;
51925;SDS011;37952;51.938;15.480;2023-03-23T15:06:34;2.80;;;1.10;;
51925;SDS011;37952;51.938;15.480;2023-03-23T15:09:41;1.10;;;1.00;;
51925;SDS011;37952;51.938;15.480;2023-03-23T15:12:47;0.90;;;0.90;;
51925;SDS011;37952;51.938;15.480;2023-03-23T15:15:50;2.40;;;0.90;;
51925;SDS011;37952;51.938;15.480;2023-03-23T15:19:03;0.80;;;0.80;;
51925;SDS011;37952;51.938;15.480;2023-03-23T15:22:22;0.70;;;0.70;;
51925;SDS011;37952;51.938;15.480;2023-03-23T15:31:43;0.80;;;0.80;;
51925;SDS011;37952;51.938;15.480;2023-03-23T15:34:48;1.20;;;0.90;;
51925;SDS011;37952;51.938;15.480;2023-03-23T15:38:33;1.10;;;1.00;;
51925;SDS011;37952;51.938;15.480;2023-03-23T15:41:27;0.90;;;0.90;;
51925;SDS011;37952;51.938;15.480;2023-03-23T15:44:33;1.00;;;1.00;;
51925;SDS011;37952;51.938;15.480;2023-03-23T15:50:44;1.20;;;1.10;;
51925;SDS011;37952;51.938;15.480;2023-03-23T15:53:50;0.70;;;0.70;;
51925;SDS011;37952;51.938;15.480;2023-03-23T15:56:54;1.80;;;0.80;;
51925;SDS011;37952;51.938;15.480;2023-03-23T15:59:56;0.70;;;0.70;;
51925;SDS011;37952;51.938;15.480;2023-03-23T16:03:01;1.10;;;0.80;;
51925;SDS011;37952;51.938;15.480;2023-03-23T16:06:10;1.10;;;0.90;;
51925;SDS011;37952;51.938;15.480;2023-03-23T16:09:29;0.80;;;0.80;;
51925;SDS011;37952;51.938;15.480;2023-03-23T16:12:33;0.90;;;0.90;;
51925;SDS011;37952;51.938;15.480;2023-03-23T16:15:40;1.00;;;1.00;;
51925;SDS011;37952;51.938;15.480;2023-03-23T16:18:45;1.40;;;0.80;;
51925;SDS011;37952;51.938;15.480;2023-03-23T16:21:48;1.50;;;1.00;;
51925;SDS011;37952;51.938;15.480;2023-03-23T16:24:55;0.90;;;0.80;;
51925;SDS011;37952;51.938;15.480;2023-03-23T16:27:59;1.00;;;0.90;;
51925;SDS011;37952;51.938;15.480;2023-03-23T16:31:08;0.90;;;0.90;;
51925;SDS011;37952;51.938;15.480;2023-03-23T16:34:13;1.10;;;1.10;;
51925;SDS011;37952;51.938;15.480;2023-03-23T16:37:20;2.20;;;1.10;;
51925;SDS011;37952;51.938;15.480;2023-03-23T16:40:24;1.50;;;1.40;;
51925;SDS011;37952;51.938;15.480;2023-03-23T16:43:29;1.30;;;1.20;;
51925;SDS011;37952;51.938;15.480;2023-03-23T16:46:34;1.30;;;1.20;;
51925;SDS011;37952;51.938;15.480;2023-03-23T16:49:38;1.10;;;1.10;;
51925;SDS011;37952;51.938;15.480;2023-03-23T16:52:44;1.30;;;1.20;;
51925;SDS011;37952;51.938;15.480;2023-03-23T16:55:51;1.20;;;1.10;;
51925;SDS011;37952;51.938;15.480;2023-03-23T16:58:59;1.10;;;1.10;;
51925;SDS011;37952;51.938;15.480;2023-03-23T17:02:04;1.00;;;1.00;;
51925;SDS011;37952;51.938;15.480;2023-03-23T17:05:09;1.00;;;0.90;;
51925;SDS011;37952;51.938;15.480;2023-03-23T17:08:17;1.00;;;0.90;;
51925;SDS011;37952;51.938;15.480;2023-03-23T17:11:21;1.30;;;1.20;;
51925;SDS011;37952;51.938;15.480;2023-03-23T17:14:24;1.80;;;0.90;;
51925;SDS011;37952;51.938;15.480;2023-03-23T17:17:27;1.00;;;0.80;;
51925;SDS011;37952;51.938;15.480;2023-03-23T17:20:30;1.10;;;1.00;;
51925;SDS011;37952;51.938;15.480;2023-03-23T17:23:33;1.30;;;1.00;;
51925;SDS011;37952;51.938;15.480;2023-03-23T17:29:49;0.90;;;0.80;;
51925;SDS011;37952;51.938;15.480;2023-03-23T17:32:52;0.80;;;0.80;;
51925;SDS011;37952;51.938;15.480;2023-03-23T17:35:55;0.90;;;0.90;;
51925;SDS011;37952;51.938;15.480;2023-03-23T17:38:58;1.80;;;1.50;;
51925;SDS011;37952;51.938;15.480;2023-03-23T17:42:01;1.90;;;0.90;;
51925;SDS011;37952;51.938;15.480;2023-03-23T17:45:06;2.00;;;1.20;;
51925;SDS011;37952;51.938;15.480;2023-03-23T17:48:10;1.00;;;1.00;;
51925;SDS011;37952;51.938;15.480;2023-03-23T17:51:13;1.10;;;1.10;;
51925;SDS011;37952;51.938;15.480;2023-03-23T17:54:17;1.20;;;1.10;;
51925;SDS011;37952;51.938;15.480;2023-03-23T17:57:20;1.10;;;1.00;;
51925;SDS011;37952;51.938;15.480;2023-03-23T18:00:23;1.40;;;1.30;;
51925;SDS011;37952;51.938;15.480;2023-03-23T18:03:27;1.20;;;1.20;;
51925;SDS011;37952;51.938;15.480;2023-03-23T18:06:30;1.10;;;1.00;;
51925;SDS011;37952;51.938;15.480;2023-03-23T18:09:34;1.10;;;1.10;;
51925;SDS011;37952;51.938;15.480;2023-03-23T18:12:38;1.20;;;1.10;;
51925;SDS011;37952;51.938;15.480;2023-03-23T18:15:42;5.40;;;1.20;;
51925;SDS011;37952;51.938;15.480;2023-03-23T18:18:48;1.10;;;1.00;;
51925;SDS011;37952;51.938;15.480;2023-03-23T18:21:51;2.00;;;0.90;;
51925;SDS011;37952;51.938;15.480;2023-03-23T18:24:54;1.50;;;1.10;;
51925;SDS011;37952;51.938;15.480;2023-03-23T18:27:57;1.20;;;1.10;;
51925;SDS011;37952;51.938;15.480;2023-03-23T18:31:08;0.90;;;0.90;;
51925;SDS011;37952;51.938;15.480;2023-03-23T18:34:14;0.90;;;0.90;;
51925;SDS011;37952;51.938;15.480;2023-03-23T18:41:32;1.20;;;0.90;;
51925;SDS011;37952;51.938;15.480;2023-03-23T18:44:35;0.90;;;0.90;;
51925;SDS011;37952;51.938;15.480;2023-03-23T18:47:38;0.90;;;0.80;;
51925;SDS011;37952;51.938;15.480;2023-03-23T18:50:44;1.20;;;1.10;;
51925;SDS011;37952;51.938;15.480;2023-03-23T18:53:51;1.50;;;1.20;;
51925;SDS011;37952;51.938;15.480;2023-03-23T18:56:53;0.90;;;0.90;;
51925;SDS011;37952;51.938;15.480;2023-03-23T19:00:01;1.10;;;1.10;;
51925;SDS011;37952;51.938;15.480;2023-03-23T19:03:06;1.00;;;0.90;;
51925;SDS011;37952;51.938;15.480;2023-03-23T19:06:17;1.20;;;1.10;;
51925;SDS011;37952;51.938;15.480;2023-03-23T19:09:22;1.20;;;1.20;;
51925;SDS011;37952;51.938;15.480;2023-03-23T19:12:25;2.00;;;1.30;;
51925;SDS011;37952;51.938;15.480;2023-03-23T19:15:28;5.50;;;1.60;;
51925;SDS011;37952;51.938;15.480;2023-03-23T19:18:31;1.50;;;1.40;;
51925;SDS011;37952;51.938;15.480;2023-03-23T19:21:35;1.60;;;1.50;;
51925;SDS011;37952;51.938;15.480;2023-03-23T19:24:39;4.20;;;1.50;;
51925;SDS011;37952;51.938;15.480;2023-03-23T19:27:41;1.60;;;1.50;;
51925;SDS011;37952;51.938;15.480;2023-03-23T19:31:05;1.70;;;1.30;;
51925;SDS011;37952;51.938;15.480;2023-03-23T19:34:08;1.80;;;1.40;;
51925;SDS011;37952;51.938;15.480;2023-03-23T19:37:16;1.50;;;1.40;;
51925;SDS011;37952;51.938;15.480;2023-03-23T19:40:20;1.50;;;1.40;;
51925;SDS011;37952;51.938;15.480;2023-03-23T19:43:42;1.60;;;1.50;;
51925;SDS011;37952;51.938;15.480;2023-03-23T19:46:45;2.20;;;1.80;;
51925;SDS011;37952;51.938;15.480;2023-03-23T19:49:50;1.70;;;1.60;;
51925;SDS011;37952;51.938;15.480;2023-03-23T19:52:54;2.30;;;1.70;;
51925;SDS011;37952;51.938;15.480;2023-03-23T19:56:01;1.70;;;1.60;;
51925;SDS011;37952;51.938;15.480;2023-03-23T19:59:06;3.70;;;1.70;;
51925;SDS011;37952;51.938;15.480;2023-03-23T20:02:12;1.70;;;1.60;;
51925;SDS011;37952;51.938;15.480;2023-03-23T20:05:16;2.00;;;1.90;;
51925;SDS011;37952;51.938;15.480;2023-03-23T20:08:19;1.70;;;1.60;;
51925;SDS011;37952;51.938;15.480;2023-03-23T20:11:22;1.80;;;1.70;;
51925;SDS011;37952;51.938;15.480;2023-03-23T20:14:25;3.80;;;2.00;;
51925;SDS011;37952;51.938;15.480;2023-03-23T20:17:28;1.50;;;1.40;;
51925;SDS011;37952;51.938;15.480;2023-03-23T20:20:31;1.60;;;1.40;;
51925;SDS011;37952;51.938;15.480;2023-03-23T20:23:35;2.90;;;1.40;;
51925;SDS011;37952;51.938;15.480;2023-03-23T20:26:40;1.10;;;1.10;;